Time,TemperatureF,DewpointF,PressureIn,WindDirection,WindDirectionDegrees,WindSpeedMPH,WindSpeedGustMPH,Humidity,HourlyPrecipIn,Conditions,Clouds,dailyrainin,SoftwareType,DateUTC
2013-04-07 00:00:00,66.4,62.7,29.89,SE,141,5.0,6.0,88,0.00,,---,0.00,VWS V14.01,2013-04-07 05:00:00,
2013-04-07 00:05:00,66.4,62.7,29.89,SSE,147,5.0,6.0,88,0.00,,---,0.00,VWS V14.01,2013-04-07 05:05:00,
2013-04-07 00:10:00,66.4,62.7,29.90,SE,142,3.0,4.0,88,0.00,,---,0.00,VWS V14.01,2013-04-07 05:10:00,
2013-04-07 00:15:00,66.5,62.8,29.90,SE,139,0.0,2.0,88,0.00,,---,0.00,VWS V14.01,2013-04-07 05:15:00,
2013-04-07 00:20:00,66.5,62.8,29.90,SE,145,4.0,8.0,88,0.00,,---,0.00,VWS V14.01,2013-04-07 05:20:00,
2013-04-07 00:25:00,66.5,62.8,29.89,SSE,153,2.0,6.0,88,0.00,,---,0.00,VWS V14.01,2013-04-07 05:25:00,
2013-04-07 00:30:00,66.4,62.7,29.89,SSE,167,9.0,9.0,88,0.00,,---,0.00,VWS V14.01,2013-04-07 05:30:00,
2013-04-07 00:35:00,66.4,62.7,29.89,SE,145,7.0,9.0,88,0.00,,---,0.00,VWS V14.01,2013-04-07 05:35:00,
2013-04-07 00:40:00,66.4,62.7,29.89,SSE,157,4.0,9.0,88,0.00,,---,0.00,VWS V14.01,2013-04-07 05:40:00,
2013-04-07 00:45:00,66.5,63.2,29.90,SSE,156,4.0,8.0,89,0.00,,---,0.00,VWS V14.01,2013-04-07 05:45:00,
2013-04-07 00:50:00,66.5,62.8,29.89,SSE,158,11.0,11.0,88,0.00,,---,0.00,VWS V14.01,2013-04-07 05:50:00,
2013-04-07 00:55:00,66.5,62.8,29.89,SSE,157,5.0,7.0,88,0.00,,---,0.00,VWS V14.01,2013-04-07 05:55:00,
2013-04-07 01:00:00,66.4,62.7,29.89,SSE,153,4.0,5.0,88,0.00,,---,0.00,VWS V14.01,2013-04-07 06:00:00,
2013-04-07 01:05:00,66.3,62.6,29.89,SSE,153,4.0,7.0,88,0.00,,---,0.00,VWS V14.01,2013-04-07 06:05:00,
2013-04-07 01:10:00,66.3,62.6,29.88,SE,143,6.0,7.0,88,0.00,,---,0.00,VWS V14.01,2013-04-07 06:10:00,
2013-04-07 01:15:00,66.3,63.0,29.88,SSE,153,11.0,11.0,89,0.00,,---,0.00,VWS V14.01,2013-04-07 06:15:00,
2013-04-07 01:20:00,66.3,62.6,29.88,SSE,160,5.0,10.0,88,0.00,,---,0.00,VWS V14.01,2013-04-07 06:20:00,
2013-04-07 01:25:00,66.3,62.6,29.88,SSE,150,5.0,6.0,88,0.00,,---,0.00,VWS V14.01,2013-04-07 06:25:00,
2013-04-07 01:30:00,66.4,62.7,29.88,SE,144,4.0,8.0,88,0.00,,---,0.00,VWS V14.01,2013-04-07 06:30:00,
2013-04-07 01:35:00,66.4,62.7,29.88,SE,134,6.0,9.0,88,0.00,,---,0.00,VWS V14.01,2013-04-07 06:35:00,
2013-04-07 01:40:00,66.4,62.7,29.87,SSE,167,8.0,8.0,88,0.00,,---,0.00,VWS V14.01,2013-04-07 06:40:00,
2013-04-07 01:45:00,66.4,63.1,29.87,South,170,6.0,9.0,89,0.00,,---,0.00,VWS V14.01,2013-04-07 06:45:00,
2013-04-07 01:50:00,66.4,63.1,29.87,SSE,160,9.0,9.0,89,0.00,,---,0.00,VWS V14.01,2013-04-07 06:50:00,
2013-04-07 01:55:00,66.3,63.0,29.87,SSE,159,6.0,10.0,89,0.00,,---,0.00,VWS V14.01,2013-04-07 06:55:00,
2013-04-07 02:00:00,66.4,63.1,29.87,SSE,151,3.0,3.0,89,0.00,,---,0.00,VWS V14.01,2013-04-07 07:00:00,
2013-04-07 02:05:00,66.4,63.1,29.87,SSE,155,5.0,6.0,89,0.00,,---,0.00,VWS V14.01,2013-04-07 07:05:00,
2013-04-07 02:10:00,66.3,63.0,29.88,SSE,156,4.0,4.0,89,0.00,,---,0.00,VWS V14.01,2013-04-07 07:10:00,
2013-04-07 02:15:00,66.3,63.0,29.88,SSE,161,3.0,4.0,89,0.00,,---,0.00,VWS V14.01,2013-04-07 07:15:00,
2013-04-07 02:20:00,66.3,63.0,29.88,SE,144,4.0,6.0,89,0.00,,---,0.00,VWS V14.01,2013-04-07 07:20:00,
2013-04-07 02:25:00,66.2,62.9,29.88,SSE,148,2.0,3.0,89,0.00,,---,0.00,VWS V14.01,2013-04-07 07:25:00,
2013-04-07 02:30:00,66.2,62.9,29.87,SSE,153,1.0,3.0,89,0.00,,---,0.00,VWS V14.01,2013-04-07 07:30:00,
2013-04-07 02:35:00,66.1,62.8,29.87,South,178,5.0,6.0,89,0.00,,---,0.00,VWS V14.01,2013-04-07 07:35:00,
2013-04-07 02:40:00,66.0,62.7,29.87,SSE,168,4.0,5.0,89,0.00,,---,0.00,VWS V14.01,2013-04-07 07:40:00,
2013-04-07 02:45:00,65.9,62.6,29.87,SSE,153,3.0,4.0,89,0.00,,---,0.00,VWS V14.01,2013-04-07 07:45:00,
2013-04-07 02:50:00,65.9,62.6,29.86,SSE,150,5.0,5.0,89,0.00,,---,0.00,VWS V14.01,2013-04-07 07:50:00,
2013-04-07 02:55:00,65.8,62.5,29.86,SSE,161,6.0,6.0,89,0.00,,---,0.00,VWS V14.01,2013-04-07 07:55:00,
2013-04-07 03:00:00,65.8,62.8,29.85,SE,137,3.0,6.0,90,0.00,,---,0.00,VWS V14.01,2013-04-07 08:00:00,
2013-04-07 03:05:00,65.7,62.7,29.85,SE,145,4.0,6.0,90,0.00,,---,0.00,VWS V14.01,2013-04-07 08:05:00,
2013-04-07 03:10:00,65.6,62.6,29.85,SSE,154,4.0,7.0,90,0.00,,---,0.00,VWS V14.01,2013-04-07 08:10:00,
2013-04-07 03:15:00,65.6,62.6,29.85,SE,138,3.0,6.0,90,0.00,,---,0.00,VWS V14.01,2013-04-07 08:15:00,
2013-04-07 03:20:00,65.5,62.5,29.85,SSE,150,4.0,6.0,90,0.00,,---,0.00,VWS V14.01,2013-04-07 08:20:00,
2013-04-07 03:25:00,65.4,62.4,29.85,SSE,157,3.0,5.0,90,0.00,,---,0.00,VWS V14.01,2013-04-07 08:25:00,
2013-04-07 03:30:00,65.4,62.4,29.85,SE,142,5.0,6.0,90,0.00,,---,0.00,VWS V14.01,2013-04-07 08:30:00,
2013-04-07 03:35:00,65.4,62.4,29.84,SE,136,5.0,7.0,90,0.00,,---,0.00,VWS V14.01,2013-04-07 08:35:00,
2013-04-07 03:40:00,65.4,62.4,29.84,SE,144,10.0,10.0,90,0.00,,---,0.00,VWS V14.01,2013-04-07 08:40:00,
2013-04-07 03:45:00,65.4,62.7,29.84,SE,138,4.0,5.0,91,0.00,,---,0.00,VWS V14.01,2013-04-07 08:45:00,
2013-04-07 03:50:00,65.4,62.7,29.84,SSE,147,4.0,6.0,91,0.00,,---,0.00,VWS V14.01,2013-04-07 08:50:00,
2013-04-07 03:55:00,65.4,62.7,29.83,SE,141,6.0,10.0,91,0.00,,---,0.00,VWS V14.01,2013-04-07 08:55:00,
2013-04-07 04:00:00,65.3,62.6,29.83,SE,134,6.0,8.0,91,0.00,,---,0.00,VWS V14.01,2013-04-07 09:00:00,
2013-04-07 04:05:00,65.3,62.6,29.83,SE,138,3.0,3.0,91,0.00,,---,0.00,VWS V14.01,2013-04-07 09:05:00,
2013-04-07 04:10:00,65.3,62.6,29.83,SSE,148,4.0,6.0,91,0.00,,---,0.00,VWS V14.01,2013-04-07 09:10:00,
2013-04-07 04:15:00,65.4,62.7,29.83,SE,134,5.0,5.0,91,0.00,,---,0.00,VWS V14.01,2013-04-07 09:15:00,
2013-04-07 04:20:00,65.3,62.6,29.83,SSE,167,5.0,5.0,91,0.00,,---,0.00,VWS V14.01,2013-04-07 09:20:00,
2013-04-07 04:25:00,65.3,62.6,29.83,South,173,7.0,7.0,91,0.00,,---,0.00,VWS V14.01,2013-04-07 09:25:00,
2013-04-07 04:30:00,65.3,62.6,29.82,SE,142,6.0,6.0,91,0.00,,---,0.00,VWS V14.01,2013-04-07 09:30:00,
2013-04-07 04:35:00,65.3,62.6,29.82,SSE,153,5.0,6.0,91,0.00,,---,0.00,VWS V14.01,2013-04-07 09:35:00,
2013-04-07 04:40:00,65.4,62.7,29.82,SE,137,4.0,6.0,91,0.00,,---,0.00,VWS V14.01,2013-04-07 09:40:00,
2013-04-07 04:45:00,65.4,62.7,29.82,SE,144,6.0,6.0,91,0.00,,---,0.00,VWS V14.01,2013-04-07 09:45:00,
2013-04-07 04:50:00,65.4,62.7,29.83,SSE,165,2.0,6.0,91,0.00,,---,0.00,VWS V14.01,2013-04-07 09:50:00,
2013-04-07 04:55:00,65.4,62.7,29.83,SE,141,3.0,5.0,91,0.00,,---,0.00,VWS V14.01,2013-04-07 09:55:00,
2013-04-07 05:00:00,65.4,62.7,29.83,SSE,153,0.0,5.0,91,0.00,,---,0.00,VWS V14.01,2013-04-07 10:00:00,
2013-04-07 05:05:00,65.4,62.7,29.82,SE,141,5.0,5.0,91,0.00,,---,0.00,VWS V14.01,2013-04-07 10:05:00,
2013-04-07 05:10:00,65.4,62.7,29.82,SE,141,5.0,6.0,91,0.00,,---,0.00,VWS V14.01,2013-04-07 10:10:00,
2013-04-07 05:15:00,65.4,62.7,29.82,SE,136,5.0,6.0,91,0.00,,---,0.00,VWS V14.01,2013-04-07 10:15:00,
2013-04-07 05:20:00,65.4,62.7,29.82,SE,138,3.0,9.0,91,0.00,,---,0.00,VWS V14.01,2013-04-07 10:20:00,
2013-04-07 05:25:00,65.4,62.7,29.82,SE,146,5.0,7.0,91,0.00,,---,0.00,VWS V14.01,2013-04-07 10:25:00,
2013-04-07 05:30:00,65.4,62.7,29.82,SE,140,4.0,6.0,91,0.00,,---,0.00,VWS V14.01,2013-04-07 10:30:00,
2013-04-07 05:35:00,65.3,62.6,29.82,SE,140,4.0,7.0,91,0.00,,---,0.00,VWS V14.01,2013-04-07 10:35:00,
2013-04-07 05:40:00,65.3,62.6,29.82,SE,140,4.0,7.0,91,0.00,,---,0.00,VWS V14.01,2013-04-07 10:40:00,
2013-04-07 05:45:00,65.3,62.6,29.82,SE,142,4.0,4.0,91,0.00,,---,0.00,VWS V14.01,2013-04-07 10:45:00,
2013-04-07 05:50:00,65.2,62.5,29.82,SSE,161,7.0,7.0,91,0.00,,---,0.00,VWS V14.01,2013-04-07 10:50:00,
2013-04-07 05:55:00,65.2,62.5,29.82,SSE,148,1.0,3.0,91,0.00,,---,0.00,VWS V14.01,2013-04-07 10:55:00,
2013-04-07 06:00:00,65.2,62.5,29.82,SE,144,2.0,5.0,91,0.00,,---,0.00,VWS V14.01,2013-04-07 11:00:00,
2013-04-07 06:05:00,65.2,62.5,29.82,SE,144,4.0,4.0,91,0.00,,---,0.00,VWS V14.01,2013-04-07 11:05:00,
2013-04-07 06:10:00,65.2,62.5,29.83,ESE,123,3.0,6.0,91,0.00,,---,0.00,VWS V14.01,2013-04-07 11:10:00,
2013-04-07 06:15:00,65.2,62.5,29.83,SE,132,3.0,3.0,91,0.00,,---,0.00,VWS V14.01,2013-04-07 11:15:00,
2013-04-07 06:20:00,65.2,62.5,29.83,SE,141,4.0,5.0,91,0.00,,---,0.00,VWS V14.01,2013-04-07 11:20:00,
2013-04-07 06:25:00,65.1,62.4,29.83,SE,134,3.0,4.0,91,0.00,,---,0.00,VWS V14.01,2013-04-07 11:25:00,
2013-04-07 06:30:00,65.0,62.3,29.83,SE,132,3.0,4.0,91,0.00,,---,0.00,VWS V14.01,2013-04-07 11:30:00,
2013-04-07 06:35:00,65.0,62.3,29.83,ESE,121,3.0,3.0,91,0.00,,---,0.00,VWS V14.01,2013-04-07 11:35:00,
2013-04-07 06:40:00,65.0,62.3,29.83,SE,140,6.0,6.0,91,0.00,,---,0.00,VWS V14.01,2013-04-07 11:40:00,
2013-04-07 06:45:00,65.0,62.3,29.83,SE,145,0.0,4.0,91,0.00,,---,0.00,VWS V14.01,2013-04-07 11:45:00,
2013-04-07 06:50:00,64.9,62.2,29.83,SE,132,4.0,4.0,91,0.00,,---,0.00,VWS V14.01,2013-04-07 11:50:00,
2013-04-07 06:55:00,64.9,62.2,29.84,SE,144,4.0,4.0,91,0.00,,---,0.00,VWS V14.01,2013-04-07 11:55:00,
2013-04-07 07:00:00,64.9,62.5,29.84,ESE,121,2.0,4.0,92,0.00,,---,0.00,VWS V14.01,2013-04-07 12:00:00,
2013-04-07 07:05:00,65.0,62.6,29.84,SE,138,4.0,4.0,92,0.00,,---,0.00,VWS V14.01,2013-04-07 12:05:00,
2013-04-07 07:10:00,64.9,62.5,29.84,SE,140,3.0,6.0,92,0.00,,---,0.00,VWS V14.01,2013-04-07 12:10:00,
2013-04-07 07:15:00,64.9,62.5,29.84,SE,130,4.0,4.0,92,0.00,,---,0.00,VWS V14.01,2013-04-07 12:15:00,
2013-04-07 07:20:00,64.9,62.5,29.84,ESE,115,3.0,5.0,92,0.00,,---,0.00,VWS V14.01,2013-04-07 12:20:00,
2013-04-07 07:25:00,64.9,62.5,29.84,ESE,120,2.0,2.0,92,0.00,,---,0.00,VWS V14.01,2013-04-07 12:25:00,
2013-04-07 07:30:00,64.9,62.5,29.85,ESE,116,2.0,2.0,92,0.00,,---,0.00,VWS V14.01,2013-04-07 12:30:00,
2013-04-07 07:35:00,64.9,62.5,29.85,ESE,116,1.0,3.0,92,0.00,,---,0.00,VWS V14.01,2013-04-07 12:35:00,
2013-04-07 07:40:00,65.0,62.6,29.85,ESE,115,1.0,3.0,92,0.00,,---,0.00,VWS V14.01,2013-04-07 12:40:00,
2013-04-07 07:45:00,65.1,62.7,29.85,SE,125,5.0,5.0,92,0.00,,---,0.00,VWS V14.01,2013-04-07 12:45:00,
2013-04-07 07:50:00,65.3,63.2,29.85,SE,126,2.0,3.0,93,0.00,,---,0.00,VWS V14.01,2013-04-07 12:50:00,
2013-04-07 07:55:00,65.5,63.1,29.85,SE,125,4.0,4.0,92,0.00,,---,0.00,VWS V14.01,2013-04-07 12:55:00,
2013-04-07 08:00:00,65.7,63.3,29.86,SE,126,3.0,4.0,92,0.00,,---,0.00,VWS V14.01,2013-04-07 13:00:00,
2013-04-07 08:05:00,66.0,63.6,29.86,SE,130,1.0,4.0,92,0.00,,---,0.00,VWS V14.01,2013-04-07 13:05:00,
2013-04-07 08:10:00,66.3,63.9,29.86,SE,134,5.0,6.0,92,0.00,,---,0.00,VWS V14.01,2013-04-07 13:10:00,
2013-04-07 08:15:00,66.6,64.2,29.86,SSE,157,2.0,5.0,92,0.00,,---,0.00,VWS V14.01,2013-04-07 13:15:00,
2013-04-07 08:20:00,67.0,64.6,29.87,SSE,153,3.0,4.0,92,0.00,,---,0.00,VWS V14.01,2013-04-07 13:20:00,
2013-04-07 08:25:00,67.3,64.6,29.87,SE,134,5.0,7.0,91,0.00,,---,0.00,VWS V14.01,2013-04-07 13:25:00,
2013-04-07 08:30:00,67.9,65.2,29.87,SE,135,6.0,7.0,91,0.00,,---,0.00,VWS V14.01,2013-04-07 13:30:00,
2013-04-07 08:35:00,68.6,65.2,29.87,SSE,153,12.0,12.0,89,0.00,,---,0.00,VWS V14.01,2013-04-07 13:35:00,
2013-04-07 08:40:00,69.2,65.5,29.87,SSE,154,10.0,11.0,88,0.00,,---,0.00,VWS V14.01,2013-04-07 13:40:00,
2013-04-07 08:45:00,69.8,65.8,29.87,SE,137,6.0,7.0,87,0.00,,---,0.00,VWS V14.01,2013-04-07 13:45:00,
2013-04-07 08:50:00,70.3,65.6,29.87,SSE,154,7.0,14.0,85,0.00,,---,0.00,VWS V14.01,2013-04-07 13:50:00,
2013-04-07 08:55:00,70.7,65.6,29.87,SE,145,6.0,10.0,84,0.00,,---,0.00,VWS V14.01,2013-04-07 13:55:00,
2013-04-07 09:00:00,71.1,65.3,29.88,SE,132,14.0,15.0,82,0.00,,---,0.00,VWS V14.01,2013-04-07 14:00:00,
2013-04-07 09:05:00,71.5,65.4,29.88,SSE,153,10.0,12.0,81,0.00,,---,0.00,VWS V14.01,2013-04-07 14:05:00,
2013-04-07 09:10:00,72.1,65.9,29.88,SE,140,6.0,9.0,81,0.00,,---,0.00,VWS V14.01,2013-04-07 14:10:00,
2013-04-07 09:15:00,72.6,65.7,29.88,SSE,168,16.0,16.0,79,0.00,,---,0.00,VWS V14.01,2013-04-07 14:15:00,
2013-04-07 09:20:00,73.0,65.7,29.88,SSE,168,20.0,20.0,78,0.00,,---,0.00,VWS V14.01,2013-04-07 14:20:00,
2013-04-07 09:25:00,73.3,65.7,29.88,South,175,12.0,18.0,77,0.00,,---,0.00,VWS V14.01,2013-04-07 14:25:00,
2013-04-07 09:30:00,73.7,65.3,29.88,SSW,198,16.0,16.0,75,0.00,,---,0.00,VWS V14.01,2013-04-07 14:30:00,
2013-04-07 09:36:00,73.8,65.4,29.88,South,175,17.0,17.0,75,0.00,,---,0.00,VWS V14.01,2013-04-07 14:36:00,
2013-04-07 09:41:00,74.2,65.8,29.88,SSE,163,14.0,14.0,75,0.00,,---,0.00,VWS V14.01,2013-04-07 14:41:00,
2013-04-07 09:46:00,74.4,66.0,29.88,SSE,167,19.0,20.0,75,0.00,,---,0.00,VWS V14.01,2013-04-07 14:46:00,
2013-04-07 09:51:00,74.3,65.5,29.88,South,169,14.0,15.0,74,0.00,,---,0.00,VWS V14.01,2013-04-07 14:51:00,
2013-04-07 09:56:00,74.4,66.0,29.88,SE,130,16.0,16.0,75,0.00,,---,0.00,VWS V14.01,2013-04-07 14:56:00,
2013-04-07 10:01:00,74.6,65.4,29.88,SSE,159,9.0,17.0,73,0.00,,---,0.00,VWS V14.01,2013-04-07 15:01:00,
2013-04-07 10:06:00,75.1,65.5,29.89,SSE,149,10.0,11.0,72,0.00,,---,0.00,VWS V14.01,2013-04-07 15:06:00,
2013-04-07 10:11:00,75.0,65.4,29.89,South,182,14.0,14.0,72,0.00,,---,0.00,VWS V14.01,2013-04-07 15:11:00,
2013-04-07 10:16:00,75.0,65.4,29.89,SE,132,14.0,14.0,72,0.00,,---,0.00,VWS V14.01,2013-04-07 15:16:00,
2013-04-07 10:21:00,74.6,65.0,29.89,SSE,155,15.0,18.0,72,0.00,,---,0.00,VWS V14.01,2013-04-07 15:21:00,
2013-04-07 10:26:00,74.8,65.2,29.89,South,182,27.0,27.0,72,0.00,,---,0.00,VWS V14.01,2013-04-07 15:26:00,
2013-04-07 10:31:00,75.1,65.1,29.89,SSE,159,12.0,15.0,71,0.00,,---,0.00,VWS V14.01,2013-04-07 15:31:00,
2013-04-07 10:36:00,75.3,65.3,29.89,SSE,156,19.0,19.0,71,0.00,,---,0.00,VWS V14.01,2013-04-07 15:36:00,
2013-04-07 10:41:00,75.3,64.8,29.89,South,180,13.0,19.0,70,0.00,,---,0.00,VWS V14.01,2013-04-07 15:41:00,
2013-04-07 10:46:00,75.6,65.1,29.89,SE,143,14.0,14.0,70,0.00,,---,0.00,VWS V14.01,2013-04-07 15:46:00,
2013-04-07 10:52:00,75.5,65.0,29.89,SE,131,16.0,21.0,70,0.00,,---,0.00,VWS V14.01,2013-04-07 15:52:00,
2013-04-07 10:57:00,75.6,65.5,29.89,South,190,15.0,15.0,71,0.00,,---,0.00,VWS V14.01,2013-04-07 15:57:00,
2013-04-07 11:02:00,75.9,65.0,29.89,ESE,119,21.0,21.0,69,0.00,,---,0.00,VWS V14.01,2013-04-07 16:02:00,
2013-04-07 11:07:00,75.7,65.2,29.89,SE,136,14.0,16.0,70,0.00,,---,0.00,VWS V14.01,2013-04-07 16:07:00,
2013-04-07 11:12:00,75.7,65.2,29.89,SSE,159,17.0,23.0,70,0.00,,---,0.00,VWS V14.01,2013-04-07 16:12:00,
2013-04-07 11:17:00,75.5,65.4,29.89,SSE,151,14.0,21.0,71,0.00,,---,0.00,VWS V14.01,2013-04-07 16:17:00,
2013-04-07 11:22:00,75.8,64.9,29.89,SE,139,10.0,20.0,69,0.00,,---,0.00,VWS V14.01,2013-04-07 16:22:00,
2013-04-07 11:27:00,75.8,65.3,29.89,SSE,164,13.0,15.0,70,0.00,,---,0.00,VWS V14.01,2013-04-07 16:27:00,
2013-04-07 11:32:00,75.8,64.9,29.89,South,190,20.0,20.0,69,0.00,,---,0.00,VWS V14.01,2013-04-07 16:32:00,
2013-04-07 11:37:00,76.3,65.4,29.89,SSE,153,23.0,23.0,69,0.00,,---,0.00,VWS V14.01,2013-04-07 16:37:00,
2013-04-07 11:42:00,76.3,65.0,29.89,East,99,13.0,19.0,68,0.00,,---,0.00,VWS V14.01,2013-04-07 16:42:00,
2013-04-07 11:47:00,76.4,65.1,29.89,SSE,164,16.0,30.0,68,0.00,,---,0.00,VWS V14.01,2013-04-07 16:47:00,
2013-04-07 11:52:00,77.1,65.7,29.89,SE,145,13.0,20.0,68,0.00,,---,0.00,VWS V14.01,2013-04-07 16:52:00,
2013-04-07 11:57:00,77.2,65.4,29.89,SE,136,17.0,21.0,67,0.00,,---,0.00,VWS V14.01,2013-04-07 16:57:00,
2013-04-07 12:02:00,76.6,65.3,29.89,East,95,13.0,25.0,68,0.00,,---,0.00,VWS V14.01,2013-04-07 17:02:00,
2013-04-07 12:07:00,76.8,65.4,29.89,SE,144,13.0,23.0,68,0.00,,---,0.00,VWS V14.01,2013-04-07 17:07:00,
2013-04-07 12:12:00,76.8,65.4,29.88,SSE,160,17.0,20.0,68,0.00,,---,0.00,VWS V14.01,2013-04-07 17:12:00,
2013-04-07 12:17:00,77.1,65.7,29.88,SSE,152,16.0,21.0,68,0.00,,---,0.00,VWS V14.01,2013-04-07 17:17:00,
2013-04-07 12:22:00,77.3,65.9,29.88,SSE,161,24.0,25.0,68,0.00,,---,0.00,VWS V14.01,2013-04-07 17:22:00,
2013-04-07 12:27:00,77.3,65.9,29.88,SE,138,10.0,23.0,68,0.00,,---,0.00,VWS V14.01,2013-04-07 17:27:00,
2013-04-07 12:32:00,76.8,65.4,29.87,SE,143,19.0,25.0,68,0.00,,---,0.00,VWS V14.01,2013-04-07 17:32:00,
2013-04-07 12:37:00,76.4,65.5,29.87,SE,140,19.0,24.0,69,0.00,,---,0.00,VWS V14.01,2013-04-07 17:37:00,
2013-04-07 12:42:00,76.0,65.1,29.87,SSE,167,15.0,18.0,69,0.00,,---,0.00,VWS V14.01,2013-04-07 17:42:00,
2013-04-07 12:47:00,76.1,65.6,29.87,SE,145,15.0,19.0,70,0.00,,---,0.00,VWS V14.01,2013-04-07 17:47:00,
2013-04-07 12:52:00,76.5,66.0,29.87,SSE,150,14.0,21.0,70,0.00,,---,0.00,VWS V14.01,2013-04-07 17:52:00,
2013-04-07 12:57:00,76.4,65.5,29.86,SE,133,17.0,17.0,69,0.00,,---,0.00,VWS V14.01,2013-04-07 17:57:00,
2013-04-07 13:02:00,76.5,66.0,29.86,ESE,104,20.0,26.0,70,0.00,,---,0.00,VWS V14.01,2013-04-07 18:02:00,
2013-04-07 13:07:00,76.4,65.5,29.86,ESE,107,16.0,20.0,69,0.00,,---,0.00,VWS V14.01,2013-04-07 18:07:00,
2013-04-07 13:12:00,76.6,65.7,29.86,SE,144,13.0,13.0,69,0.00,,---,0.00,VWS V14.01,2013-04-07 18:12:00,
2013-04-07 13:17:00,76.9,65.5,29.85,ESE,121,20.0,20.0,68,0.00,,---,0.00,VWS V14.01,2013-04-07 18:17:00,
2013-04-07 13:22:00,77.0,65.6,29.85,SE,125,9.0,9.0,68,0.00,,---,0.00,VWS V14.01,2013-04-07 18:22:00,
2013-04-07 13:27:00,76.9,65.5,29.84,ESE,123,15.0,16.0,68,0.00,,---,0.00,VWS V14.01,2013-04-07 18:27:00,
2013-04-07 13:32:00,77.5,65.7,29.84,SE,132,16.0,17.0,67,0.00,,---,0.00,VWS V14.01,2013-04-07 18:32:00,
2013-04-07 13:37:00,77.2,65.8,29.84,ESE,121,17.0,25.0,68,0.00,,---,0.00,VWS V14.01,2013-04-07 18:37:00,
2013-04-07 13:42:00,77.0,65.6,29.84,SE,145,15.0,16.0,68,0.00,,---,0.00,VWS V14.01,2013-04-07 18:42:00,
2013-04-07 13:47:00,76.8,65.4,29.83,SE,135,13.0,13.0,68,0.00,,---,0.00,VWS V14.01,2013-04-07 18:47:00,
2013-04-07 13:52:00,77.4,66.0,29.83,SE,140,19.0,19.0,68,0.00,,---,0.00,VWS V14.01,2013-04-07 18:52:00,
2013-04-07 13:57:00,77.8,66.0,29.83,SE,146,13.0,16.0,67,0.00,,---,0.00,VWS V14.01,2013-04-07 18:57:00,
2013-04-07 14:02:00,77.5,66.1,29.82,ESE,122,13.0,22.0,68,0.00,,---,0.00,VWS V14.01,2013-04-07 19:02:00,
2013-04-07 14:07:00,77.5,66.1,29.82,SSE,163,16.0,20.0,68,0.00,,---,0.00,VWS V14.01,2013-04-07 19:07:00,
2013-04-07 14:12:00,77.3,65.5,29.82,SE,136,17.0,19.0,67,0.00,,---,0.00,VWS V14.01,2013-04-07 19:12:00,
2013-04-07 14:17:00,77.4,65.6,29.82,SE,140,14.0,22.0,67,0.00,,---,0.00,VWS V14.01,2013-04-07 19:17:00,
2013-04-07 14:22:00,77.2,65.4,29.82,SSE,150,13.0,17.0,67,0.00,,---,0.00,VWS V14.01,2013-04-07 19:22:00,
2013-04-07 14:27:00,77.4,65.6,29.81,SE,138,20.0,20.0,67,0.00,,---,0.00,VWS V14.01,2013-04-07 19:27:00,
2013-04-07 14:32:00,77.5,65.7,29.81,SSE,154,17.0,20.0,67,0.00,,---,0.00,VWS V14.01,2013-04-07 19:32:00,
2013-04-07 14:37:00,77.6,65.3,29.81,SSE,149,15.0,20.0,66,0.00,,---,0.00,VWS V14.01,2013-04-07 19:37:00,
2013-04-07 14:42:00,78.0,65.7,29.81,SE,138,22.0,22.0,66,0.00,,---,0.00,VWS V14.01,2013-04-07 19:42:00,
2013-04-07 14:47:00,78.1,65.8,29.80,SE,133,7.0,17.0,66,0.00,,---,0.00,VWS V14.01,2013-04-07 19:47:00,
2013-04-07 14:52:00,78.3,65.6,29.80,ESE,123,11.0,18.0,65,0.00,,---,0.00,VWS V14.01,2013-04-07 19:52:00,
2013-04-07 14:57:00,78.2,65.5,29.80,SSW,194,22.0,22.0,65,0.00,,---,0.00,VWS V14.01,2013-04-07 19:57:00,
2013-04-07 15:02:00,78.0,65.3,29.80,SE,136,15.0,23.0,65,0.00,,---,0.00,VWS V14.01,2013-04-07 20:02:00,
2013-04-07 15:07:00,78.1,65.4,29.80,ESE,119,14.0,18.0,65,0.00,,---,0.00,VWS V14.01,2013-04-07 20:07:00,
2013-04-07 15:12:00,78.1,65.8,29.80,SE,133,19.0,20.0,66,0.00,,---,0.00,VWS V14.01,2013-04-07 20:12:00,
2013-04-07 15:17:00,78.1,65.4,29.80,SSE,153,13.0,22.0,65,0.00,,---,0.00,VWS V14.01,2013-04-07 20:17:00,
2013-04-07 15:22:00,78.7,66.0,29.80,SE,138,16.0,16.0,65,0.00,,---,0.00,VWS V14.01,2013-04-07 20:22:00,
2013-04-07 15:27:00,78.3,66.0,29.80,SE,139,12.0,20.0,66,0.00,,---,0.00,VWS V14.01,2013-04-07 20:27:00,
2013-04-07 15:32:00,78.1,65.8,29.79,ESE,123,17.0,21.0,66,0.00,,---,0.00,VWS V14.01,2013-04-07 20:32:00,
2013-04-07 15:37:00,77.4,65.6,29.79,SSE,153,13.0,19.0,67,0.00,,---,0.00,VWS V14.01,2013-04-07 20:37:00,
2013-04-07 15:42:00,77.3,65.5,29.79,ESE,120,17.0,23.0,67,0.00,,---,0.00,VWS V14.01,2013-04-07 20:42:00,
2013-04-07 15:47:00,77.0,65.6,29.78,SE,126,25.0,25.0,68,0.00,,---,0.00,VWS V14.01,2013-04-07 20:47:00,
2013-04-07 15:52:00,77.5,66.1,29.78,SE,137,20.0,20.0,68,0.00,,---,0.00,VWS V14.01,2013-04-07 20:52:00,
2013-04-07 15:57:00,77.3,66.3,29.78,SSE,159,27.0,27.0,69,0.00,,---,0.00,VWS V14.01,2013-04-07 20:57:00,
2013-04-07 16:02:00,77.4,66.0,29.78,SE,133,16.0,18.0,68,0.00,,---,0.00,VWS V14.01,2013-04-07 21:02:00,
2013-04-07 16:07:00,77.0,65.6,29.78,SSE,165,13.0,18.0,68,0.00,,---,0.00,VWS V14.01,2013-04-07 21:07:00,
2013-04-07 16:13:00,77.3,65.9,29.78,SE,138,23.0,23.0,68,0.00,,---,0.00,VWS V14.01,2013-04-07 21:13:00,
2013-04-07 16:18:00,76.9,65.5,29.78,East,95,13.0,23.0,68,0.00,,---,0.00,VWS V14.01,2013-04-07 21:18:00,
2013-04-07 16:23:00,76.6,66.1,29.77,SE,126,14.0,22.0,70,0.00,,---,0.00,VWS V14.01,2013-04-07 21:23:00,
2013-04-07 16:28:00,76.7,65.8,29.77,SE,133,15.0,23.0,69,0.00,,---,0.00,VWS V14.01,2013-04-07 21:28:00,
2013-04-07 16:33:00,76.7,65.8,29.78,SE,144,18.0,21.0,69,0.00,,---,0.00,VWS V14.01,2013-04-07 21:33:00,
2013-04-07 16:38:00,76.5,65.6,29.77,SE,132,16.0,17.0,69,0.00,,---,0.00,VWS V14.01,2013-04-07 21:38:00,
2013-04-07 16:43:00,76.4,65.9,29.77,SE,128,22.0,23.0,70,0.00,,---,0.00,VWS V14.01,2013-04-07 21:43:00,
2013-04-07 16:48:00,76.4,65.9,29.77,ESE,113,19.0,23.0,70,0.00,,---,0.00,VWS V14.01,2013-04-07 21:48:00,
2013-04-07 16:53:00,76.3,65.4,29.78,SE,135,13.0,17.0,69,0.00,,---,0.00,VWS V14.01,2013-04-07 21:53:00,
2013-04-07 16:58:00,76.2,65.7,29.77,SE,133,15.0,21.0,70,0.00,,---,0.00,VWS V14.01,2013-04-07 21:58:00,
2013-04-07 17:03:00,76.0,65.5,29.77,SE,140,18.0,18.0,70,0.00,,---,0.00,VWS V14.01,2013-04-07 22:03:00,
2013-04-07 17:08:00,75.5,65.8,29.77,SE,132,21.0,24.0,72,0.00,,---,0.00,VWS V14.01,2013-04-07 22:08:00,
2013-04-07 17:13:00,75.4,65.8,29.77,SE,128,14.0,21.0,72,0.00,,---,0.00,VWS V14.01,2013-04-07 22:13:00,
2013-04-07 17:18:00,75.6,65.5,29.77,ESE,115,16.0,25.0,71,0.00,,---,0.00,VWS V14.01,2013-04-07 22:18:00,
2013-04-07 17:23:00,75.2,65.6,29.77,SE,145,17.0,21.0,72,0.00,,---,0.00,VWS V14.01,2013-04-07 22:23:00,
2013-04-07 17:28:00,75.1,65.9,29.77,SE,141,17.0,26.0,73,0.00,,---,0.00,VWS V14.01,2013-04-07 22:28:00,
2013-04-07 17:33:00,74.9,65.7,29.76,ESE,120,14.0,19.0,73,0.00,,---,0.00,VWS V14.01,2013-04-07 22:33:00,
2013-04-07 17:38:00,74.7,65.9,29.76,SE,137,15.0,20.0,74,0.00,,---,0.00,VWS V14.01,2013-04-07 22:38:00,
2013-04-07 17:43:00,75.0,65.8,29.76,SE,146,14.0,20.0,73,0.00,,---,0.00,VWS V14.01,2013-04-07 22:43:00,
2013-04-07 17:48:00,74.8,65.6,29.76,ESE,115,18.0,22.0,73,0.00,,---,0.00,VWS V14.01,2013-04-07 22:48:00,
2013-04-07 17:53:00,74.4,65.6,29.76,SE,126,16.0,23.0,74,0.00,,---,0.00,VWS V14.01,2013-04-07 22:53:00,
2013-04-07 17:58:00,74.5,65.7,29.77,SE,142,19.0,22.0,74,0.00,,---,0.00,VWS V14.01,2013-04-07 22:58:00,
2013-04-07 18:03:00,74.4,65.6,29.76,SE,128,13.0,16.0,74,0.00,,---,0.00,VWS V14.01,2013-04-07 23:03:00,
2013-04-07 18:08:00,74.3,65.5,29.76,SE,135,18.0,26.0,74,0.00,,---,0.00,VWS V14.01,2013-04-07 23:08:00,
2013-04-07 18:13:00,73.7,65.3,29.76,SE,134,11.0,26.0,75,0.00,,---,0.00,VWS V14.01,2013-04-07 23:13:00,
2013-04-07 18:18:00,73.4,65.4,29.77,SE,131,17.0,17.0,76,0.00,,---,0.00,VWS V14.01,2013-04-07 23:18:00,
2013-04-07 18:23:00,73.3,65.3,29.77,SE,138,22.0,24.0,76,0.00,,---,0.00,VWS V14.01,2013-04-07 23:23:00,
2013-04-07 18:28:00,73.3,65.7,29.77,ESE,115,12.0,21.0,77,0.00,,---,0.00,VWS V14.01,2013-04-07 23:28:00,
2013-04-07 18:33:00,73.3,65.7,29.77,ESE,114,18.0,18.0,77,0.00,,---,0.00,VWS V14.01,2013-04-07 23:33:00,
2013-04-07 18:38:00,73.2,65.6,29.77,SE,142,11.0,17.0,77,0.00,,---,0.00,VWS V14.01,2013-04-07 23:38:00,
2013-04-07 18:43:00,73.2,65.6,29.77,ESE,119,13.0,14.0,77,0.00,,---,0.00,VWS V14.01,2013-04-07 23:43:00,
2013-04-07 18:48:00,73.1,65.8,29.77,SSE,152,13.0,14.0,78,0.00,,---,0.00,VWS V14.01,2013-04-07 23:48:00,
2013-04-07 18:53:00,72.9,65.7,29.77,SE,144,8.0,18.0,78,0.00,,---,0.00,VWS V14.01,2013-04-07 23:53:00,
2013-04-07 18:58:00,72.7,65.8,29.77,ESE,123,13.0,19.0,79,0.00,,---,0.00,VWS V14.01,2013-04-07 23:58:00,
2013-04-07 19:03:00,72.6,65.7,29.77,SSE,157,10.0,15.0,79,0.00,,---,0.00,VWS V14.01,2013-04-08 00:03:00,
2013-04-07 19:08:00,72.4,65.5,29.77,South,178,15.0,18.0,79,0.00,,---,0.00,VWS V14.01,2013-04-08 00:08:00,
2013-04-07 19:13:00,72.1,65.6,29.78,ESE,115,14.0,14.0,80,0.00,,---,0.00,VWS V14.01,2013-04-08 00:13:00,
2013-04-07 19:18:00,72.0,65.5,29.78,ESE,119,11.0,18.0,80,0.00,,---,0.00,VWS V14.01,2013-04-08 00:18:00,
2013-04-07 19:23:00,71.9,65.8,29.78,SE,144,5.0,12.0,81,0.00,,---,0.00,VWS V14.01,2013-04-08 00:23:00,
2013-04-07 19:28:00,71.8,65.7,29.78,SE,128,9.0,15.0,81,0.00,,---,0.00,VWS V14.01,2013-04-08 00:28:00,
2013-04-07 19:33:00,71.6,65.5,29.78,SE,137,9.0,19.0,81,0.00,,---,0.00,VWS V14.01,2013-04-08 00:33:00,
2013-04-07 19:38:00,71.4,65.6,29.78,SE,140,10.0,21.0,82,0.00,,---,0.00,VWS V14.01,2013-04-08 00:38:00,
2013-04-07 19:43:00,71.2,65.4,29.78,SE,138,11.0,14.0,82,0.00,,---,0.00,VWS V14.01,2013-04-08 00:43:00,
2013-04-07 19:48:00,71.0,65.2,29.78,ESE,113,13.0,20.0,82,0.00,,---,0.00,VWS V14.01,2013-04-08 00:48:00,
2013-04-07 19:53:00,70.9,65.5,29.78,SE,142,18.0,20.0,83,0.00,,---,0.00,VWS V14.01,2013-04-08 00:53:00,
2013-04-07 19:58:00,70.8,65.4,29.78,SE,127,9.0,12.0,83,0.00,,---,0.00,VWS V14.01,2013-04-08 00:58:00,
2013-04-07 20:03:00,70.6,65.5,29.78,SSE,149,12.0,20.0,84,0.00,,---,0.00,VWS V14.01,2013-04-08 01:03:00,
2013-04-07 20:08:00,70.6,65.5,29.78,SE,128,12.0,12.0,84,0.00,,---,0.00,VWS V14.01,2013-04-08 01:08:00,
2013-04-07 20:13:00,70.4,65.3,29.79,SE,142,9.0,14.0,84,0.00,,---,0.00,VWS V14.01,2013-04-08 01:13:00,
2013-04-07 20:18:00,70.3,65.2,29.79,SE,138,9.0,10.0,84,0.00,,---,0.00,VWS V14.01,2013-04-08 01:18:00,
2013-04-07 20:23:00,70.2,65.5,29.79,SE,139,9.0,14.0,85,0.00,,---,0.00,VWS V14.01,2013-04-08 01:23:00,
2013-04-07 20:28:00,70.2,65.5,29.79,SE,139,12.0,12.0,85,0.00,,---,0.00,VWS V14.01,2013-04-08 01:28:00,
2013-04-07 20:33:00,70.1,65.4,29.79,SE,144,5.0,15.0,85,0.00,,---,0.00,VWS V14.01,2013-04-08 01:33:00,
2013-04-07 20:38:00,70.0,65.3,29.79,ESE,117,5.0,11.0,85,0.00,,---,0.00,VWS V14.01,2013-04-08 01:38:00,
2013-04-07 20:43:00,69.9,65.2,29.79,ESE,122,12.0,13.0,85,0.00,,---,0.00,VWS V14.01,2013-04-08 01:43:00,
2013-04-07 20:48:00,69.9,65.5,29.79,SE,130,16.0,16.0,86,0.00,,---,0.00,VWS V14.01,2013-04-08 01:48:00,
2013-04-07 20:53:00,69.9,65.5,29.79,SE,143,6.0,16.0,86,0.00,,---,0.00,VWS V14.01,2013-04-08 01:53:00,
2013-04-07 20:58:00,69.8,65.4,29.79,SE,134,6.0,11.0,86,0.00,,---,0.00,VWS V14.01,2013-04-08 01:58:00,
2013-04-07 21:03:00,69.7,65.3,29.80,ESE,120,6.0,13.0,86,0.00,,---,0.00,VWS V14.01,2013-04-08 02:03:00,
2013-04-07 21:08:00,69.7,65.3,29.80,SSE,154,8.0,12.0,86,0.00,,---,0.00,VWS V14.01,2013-04-08 02:08:00,
2013-04-07 21:13:00,69.7,65.7,29.80,SE,129,7.0,14.0,87,0.00,,---,0.00,VWS V14.01,2013-04-08 02:13:00,
2013-04-07 21:18:00,69.7,65.7,29.80,SE,142,8.0,14.0,87,0.00,,---,0.00,VWS V14.01,2013-04-08 02:18:00,
2013-04-07 21:23:00,69.7,65.7,29.80,SE,136,9.0,10.0,87,0.00,,---,0.00,VWS V14.01,2013-04-08 02:23:00,
2013-04-07 21:28:00,69.7,65.7,29.80,SE,142,8.0,11.0,87,0.00,,---,0.00,VWS V14.01,2013-04-08 02:28:00,
2013-04-07 21:33:00,69.7,65.7,29.81,ESE,103,9.0,13.0,87,0.00,,---,0.00,VWS V14.01,2013-04-08 02:33:00,
2013-04-07 21:38:00,69.7,65.7,29.81,SE,125,10.0,13.0,87,0.00,,---,0.00,VWS V14.01,2013-04-08 02:38:00,
2013-04-07 21:43:00,69.7,65.7,29.81,SE,142,6.0,11.0,87,0.00,,---,0.00,VWS V14.01,2013-04-08 02:43:00,
2013-04-07 21:48:00,69.6,65.6,29.81,SE,142,13.0,14.0,87,0.00,,---,0.00,VWS V14.01,2013-04-08 02:48:00,
2013-04-07 21:53:00,69.7,65.7,29.81,SE,131,10.0,11.0,87,0.00,,---,0.00,VWS V14.01,2013-04-08 02:53:00,
2013-04-07 21:58:00,69.7,65.7,29.81,SE,137,9.0,13.0,87,0.00,,---,0.00,VWS V14.01,2013-04-08 02:58:00,
2013-04-07 22:03:00,69.8,65.8,29.81,SE,142,4.0,10.0,87,0.00,,---,0.00,VWS V14.01,2013-04-08 03:03:00,
2013-04-07 22:08:00,69.8,65.8,29.82,SE,140,3.0,9.0,87,0.00,,---,0.00,VWS V14.01,2013-04-08 03:08:00,
2013-04-07 22:13:00,69.9,65.9,29.82,SSE,157,6.0,11.0,87,0.00,,---,0.00,VWS V14.01,2013-04-08 03:13:00,
2013-04-07 22:18:00,69.8,65.8,29.82,SSE,150,7.0,7.0,87,0.00,,---,0.00,VWS V14.01,2013-04-08 03:18:00,
2013-04-07 22:23:00,69.8,66.1,29.82,SE,142,7.0,7.0,88,0.00,,---,0.00,VWS V14.01,2013-04-08 03:23:00,
2013-04-07 22:28:00,69.8,66.1,29.82,SE,142,12.0,12.0,88,0.00,,---,0.00,VWS V14.01,2013-04-08 03:28:00,
2013-04-07 22:33:00,69.8,66.1,29.82,SE,136,15.0,15.0,88,0.00,,---,0.00,VWS V14.01,2013-04-08 03:33:00,
2013-04-07 22:38:00,69.7,66.0,29.82,SE,137,6.0,12.0,88,0.00,,---,0.00,VWS V14.01,2013-04-08 03:38:00,
2013-04-07 22:43:00,69.7,66.0,29.81,SSE,150,5.0,11.0,88,0.00,,---,0.00,VWS V14.01,2013-04-08 03:43:00,
2013-04-07 22:48:00,69.7,66.0,29.81,SSE,153,6.0,10.0,88,0.00,,---,0.00,VWS V14.01,2013-04-08 03:48:00,
2013-04-07 22:53:00,69.7,66.0,29.81,SE,129,14.0,14.0,88,0.00,,---,0.00,VWS V14.01,2013-04-08 03:53:00,
2013-04-07 22:58:00,69.7,66.3,29.81,SSE,160,10.0,16.0,89,0.00,,---,0.00,VWS V14.01,2013-04-08 03:58:00,
2013-04-07 23:00:00,69.7,66.3,29.81,ESE,122,6.0,9.0,89,0.00,,---,0.00,VWS V14.01,2013-04-08 04:00:00,
2013-04-07 23:01:00,69.6,66.2,29.81,SE,146,10.0,16.0,89,0.00,,---,0.00,VWS V14.01,2013-04-08 04:01:00,
2013-04-07 23:06:00,69.7,66.3,29.81,ESE,122,10.0,10.0,89,0.00,,---,0.00,VWS V14.01,2013-04-08 04:06:00,
2013-04-07 23:11:00,69.7,66.3,29.81,SE,132,8.0,11.0,89,0.00,,---,0.00,VWS V14.01,2013-04-08 04:11:00,
2013-04-07 23:16:00,69.7,66.3,29.81,SE,139,5.0,10.0,89,0.00,,---,0.00,VWS V14.01,2013-04-08 04:16:00,
2013-04-07 23:21:00,69.7,66.3,29.81,SSE,160,11.0,11.0,89,0.00,,---,0.00,VWS V14.01,2013-04-08 04:21:00,
2013-04-07 23:26:00,69.7,66.3,29.81,SE,138,15.0,15.0,89,0.00,,---,0.00,VWS V14.01,2013-04-08 04:26:00,
2013-04-07 23:31:00,69.7,66.3,29.80,SE,134,13.0,13.0,89,0.00,,---,0.00,VWS V14.01,2013-04-08 04:31:00,
2013-04-07 23:36:00,69.7,66.3,29.80,SE,130,6.0,8.0,89,0.00,,---,0.00,VWS V14.01,2013-04-08 04:36:00,
2013-04-07 23:42:00,69.8,66.4,29.80,SSE,153,3.0,11.0,89,0.00,,---,0.00,VWS V14.01,2013-04-08 04:42:00,
2013-04-07 23:47:00,69.8,66.4,29.80,SE,133,5.0,10.0,89,0.00,,---,0.00,VWS V14.01,2013-04-08 04:47:00,
2013-04-07 23:52:00,69.8,66.1,29.79,SSE,159,9.0,13.0,88,0.00,,---,0.00,VWS V14.01,2013-04-08 04:52:00,
2013-04-07 23:57:00,69.8,66.1,29.79,SSE,155,6.0,13.0,88,0.00,,---,0.00,VWS V14.01,2013-04-08 04:57:00,